Time;durP1;ratioP1;P1;durP2;ratioP2;P2;SDS_P1;SDS_P2;PMS_P1;PMS_P2;Temp;Humidity;BMP_temperature;BMP_pressure;BME280_temperature;BME280_humidity;BME280_pressure;Samples;Min_cycle;Max_cycle;Signal;HPM_P1;HPM_P2
2021/10/07 00:00:49;;;;;;;0.52;0.30;;;10.40;99.90;;;;;;5047953;28;20224;-76
2021/10/07 00:03:15;;;;;;;0.30;0.30;;;10.50;99.90;;;;;;5059072;28;20184;-76
2021/10/07 00:05:41;;;;;;;1.98;0.20;;;10.60;99.90;;;;;;5069439;28;20229;-76
2021/10/07 00:08:07;;;;;;;0.10;0.10;;;10.70;99.90;;;;;;5086022;28;20176;-75
2021/10/07 00:10:33;;;;;;;0.50;0.30;;;10.80;99.90;;;;;;5089223;28;20204;-75
2021/10/07 00:12:59;;;;;;;0.30;0.20;;;10.80;99.90;;;;;;5071285;28;20160;-75
2021/10/07 00:15:25;;;;;;;0.40;0.30;;;10.70;99.90;;;;;;5089587;28;20247;-75
2021/10/07 00:17:51;;;;;;;0.32;0.32;;;10.70;99.90;;;;;;5071333;28;20168;-75
2021/10/07 00:20:17;;;;;;;0.20;0.20;;;10.60;99.90;;;;;;5089242;28;20274;-75
2021/10/07 00:22:45;;;;;;;0.17;0.17;;;10.70;99.90;;;;;;5089442;28;20178;-75
2021/10/07 00:25:13;;;;;;;1.83;0.30;;;10.50;99.90;;;;;;5089167;28;20152;-75
2021/10/07 00:27:39;;;;;;;0.20;0.10;;;10.50;99.90;;;;;;5071156;28;20180;-75
2021/10/07 00:30:14;;;;;;;0.85;0.30;;;10.50;99.90;;;;;;5088953;28;20571;-75
2021/10/07 00:35:42;;;;;;;0.60;0.20;;;10.50;99.90;;;;;;5089076;28;20160;-75
2021/10/07 00:40:53;;;;;;;0.63;0.40;;;10.30;99.90;;;;;;5088866;28;20199;-74
2021/10/07 00:43:19;;;;;;;0.43;0.30;;;10.30;99.90;;;;;;5088868;28;20206;-74
2021/10/07 00:46:00;;;;;;;0.80;0.25;;;10.20;99.90;;;;;;5088910;28;20584;-74
2021/10/07 00:48:26;;;;;;;0.57;0.50;;;10.30;99.90;;;;;;5088594;28;20156;-73
2021/10/07 00:50:52;;;;;;;0.55;0.30;;;10.20;99.90;;;;;;5087295;28;20279;-73
2021/10/07 00:53:19;;;;;;;0.75;0.40;;;10.20;99.90;;;;;;5070319;28;20230;-74
2021/10/07 00:55:46;;;;;;;0.55;0.30;;;10.20;99.90;;;;;;5088553;28;20153;-74
2021/10/07 00:58:14;;;;;;;0.10;0.10;;;10.30;99.90;;;;;;5088500;28;20160;-74
2021/10/07 01:00:41;;;;;;;0.20;0.20;;;10.30;99.90;;;;;;5070653;28;20234;-74
2021/10/07 01:03:08;;;;;;;0.30;0.30;;;10.30;99.90;;;;;;5068071;28;20161;-74
2021/10/07 01:05:35;;;;;;;0.20;0.20;;;10.30;99.90;;;;;;5046874;28;20252;-74
2021/10/07 01:08:01;;;;;;;0.63;0.32;;;10.30;99.90;;;;;;5048121;28;20204;-74
2021/10/07 01:10:27;;;;;;;0.22;0.22;;;10.20;99.90;;;;;;5047895;28;20204;-73
2021/10/07 01:12:53;;;;;;;0.20;0.20;;;10.10;99.90;;;;;;5047899;28;20229;-73
2021/10/07 01:15:19;;;;;;;0.20;0.15;;;10.10;99.90;;;;;;5048075;28;20161;-73
2021/10/07 01:17:45;;;;;;;0.15;0.15;;;10.10;99.90;;;;;;5047965;28;20224;-74
2021/10/07 01:20:12;;;;;;;0.20;0.20;;;10.10;99.90;;;;;;5047948;28;20200;-73
2021/10/07 01:22:38;;;;;;;0.28;0.20;;;10.10;99.90;;;;;;5046904;28;20209;-76
2021/10/07 01:25:06;;;;;;;0.30;0.30;;;10.20;99.90;;;;;;5047417;28;20693;-75
2021/10/07 01:27:33;;;;;;;0.20;0.20;;;10.10;99.90;;;;;;5047960;28;20608;-76
2021/10/07 01:30:10;;;;;;;0.20;0.20;;;10.10;99.90;;;;;;5046261;28;20205;-73
2021/10/07 01:32:38;;;;;;;0.30;0.20;;;10.10;99.90;;;;;;5047722;28;20157;-75
2021/10/07 01:35:06;;;;;;;0.40;0.30;;;10.00;99.90;;;;;;5029875;28;20166;-75
2021/10/07 01:37:33;;;;;;;0.30;0.30;;;9.90;99.90;;;;;;5047852;28;20158;-75
2021/10/07 01:39:59;;;;;;;1.65;0.20;;;10.00;99.90;;;;;;5047645;28;20237;-74
2021/10/07 01:42:26;;;;;;;0.28;0.28;;;10.00;99.90;;;;;;5046344;28;20179;-74
2021/10/07 01:44:53;;;;;;;0.30;0.30;;;10.10;99.90;;;;;;5047803;28;20185;-74
2021/10/07 01:47:19;;;;;;;0.52;0.38;;;10.00;99.90;;;;;;5047672;28;20594;-74
2021/10/07 01:49:45;;;;;;;0.60;0.47;;;10.00;99.90;;;;;;5046142;28;20216;-74
2021/10/07 01:52:11;;;;;;;0.20;0.20;;;10.10;99.90;;;;;;5064262;28;20212;-74
2021/10/07 01:54:37;;;;;;;0.93;0.50;;;10.00;99.90;;;;;;5071673;28;20153;-74
2021/10/07 01:57:04;;;;;;;0.43;0.17;;;10.00;99.90;;;;;;5071811;28;20192;-73
2021/10/07 01:59:30;;;;;;;0.50;0.32;;;10.10;99.90;;;;;;5071400;28;20528;-73
2021/10/07 02:01:56;;;;;;;0.93;0.50;;;10.00;99.90;;;;;;5071613;28;20189;-73
2021/10/07 02:04:22;;;;;;;0.95;0.70;;;10.00;99.90;;;;;;5071606;28;20240;-73
2021/10/07 02:06:48;;;;;;;0.60;0.60;;;10.00;99.90;;;;;;5071552;28;20161;-73
2021/10/07 02:09:14;;;;;;;1.02;0.70;;;10.00;99.90;;;;;;5071482;28;20238;-74
2021/10/07 02:11:40;;;;;;;1.15;0.73;;;10.00;99.90;;;;;;5071262;28;20200;-74
2021/10/07 02:14:06;;;;;;;1.27;1.08;;;10.00;99.90;;;;;;5071375;28;20164;-75
2021/10/07 02:16:33;;;;;;;1.42;0.80;;;10.00;99.90;;;;;;5071320;28;20169;-75
2021/10/07 02:18:59;;;;;;;1.60;1.20;;;10.10;99.90;;;;;;5071281;28;20161;-75
2021/10/07 02:21:25;;;;;;;1.23;1.08;;;10.10;99.90;;;;;;5071176;28;20199;-75
2021/10/07 02:23:53;;;;;;;1.92;1.00;;;10.10;99.90;;;;;;5071400;28;20240;-75
2021/10/07 02:26:20;;;;;;;1.85;1.08;;;10.10;99.90;;;;;;5071181;28;20168;-76
2021/10/07 02:28:47;;;;;;;1.33;1.23;;;10.00;99.90;;;;;;5071089;28;20161;-76
2021/10/07 02:31:13;;;;;;;2.55;1.20;;;10.10;99.90;;;;;;5052719;28;20204;-76
2021/10/07 02:33:39;;;;;;;1.13;0.90;;;10.10;99.90;;;;;;5070936;28;20211;-75
2021/10/07 02:36:05;;;;;;;1.17;0.98;;;10.10;99.90;;;;;;5070895;28;20161;-76
2021/10/07 02:38:31;;;;;;;2.10;1.50;;;10.10;99.90;;;;;;5070832;28;20153;-76
2021/10/07 02:40:57;;;;;;;1.63;1.23;;;10.00;99.90;;;;;;5070760;28;20212;-76
2021/10/07 02:43:23;;;;;;;1.90;1.25;;;10.00;99.90;;;;;;5070604;28;20215;-75
2021/10/07 02:45:49;;;;;;;1.00;0.90;;;9.90;99.90;;;;;;5070422;28;20169;-75
2021/10/07 02:48:15;;;;;;;1.88;1.23;;;9.90;99.90;;;;;;5070411;28;20160;-75
2021/10/07 02:50:41;;;;;;;1.10;0.93;;;10.00;99.90;;;;;;5052019;28;20216;-75
2021/10/07 02:53:07;;;;;;;1.63;1.38;;;9.90;99.90;;;;;;5070116;28;20228;-77
2021/10/07 02:55:33;;;;;;;2.40;1.52;;;9.90;99.90;;;;;;5070404;28;20220;-74
2021/10/07 02:57:59;;;;;;;2.78;1.50;;;9.90;99.90;;;;;;5070105;28;20157;-76
2021/10/07 03:00:25;;;;;;;2.05;1.50;;;9.90;99.90;;;;;;5070058;28;20605;-77
2021/10/07 03:02:52;;;;;;;1.70;1.33;;;9.80;99.90;;;;;;5069655;28;20149;-77
2021/10/07 03:05:18;;;;;;;1.23;1.10;;;9.90;99.90;;;;;;5070115;28;20168;-77
2021/10/07 03:07:44;;;;;;;2.33;1.50;;;9.90;99.90;;;;;;5069963;28;20161;-75
2021/10/07 03:10:11;;;;;;;1.60;1.50;;;9.90;99.90;;;;;;5069692;28;20257;-74
2021/10/07 03:12:37;;;;;;;1.90;1.52;;;9.90;99.90;;;;;;5069810;28;20638;-74
2021/10/07 03:15:04;;;;;;;1.92;1.50;;;9.90;99.90;;;;;;5069834;28;20258;-74
2021/10/07 03:17:31;;;;;;;2.45;1.40;;;9.90;99.90;;;;;;5069837;28;20157;-74
2021/10/07 03:19:56;;;;;;;1.85;1.63;;;9.90;99.90;;;;;;5069811;28;20157;-74
2021/10/07 03:22:22;;;;;;;4.32;1.80;;;10.00;99.90;;;;;;5069638;28;20216;-75
2021/10/07 03:24:48;;;;;;;2.10;1.67;;;10.00;99.90;;;;;;5069745;28;20178;-74
2021/10/07 03:27:14;;;;;;;4.32;1.52;;;10.00;99.90;;;;;;5051573;28;20172;-75
2021/10/07 03:29:40;;;;;;;3.63;2.10;;;10.00;99.90;;;;;;5051468;28;20227;-75
2021/10/07 03:32:06;;;;;;;3.35;2.10;;;10.00;99.90;;;;;;5069504;28;20189;-75
2021/10/07 03:34:32;;;;;;;3.30;1.80;;;9.90;99.90;;;;;;5069586;28;20174;-76
2021/10/07 03:36:58;;;;;;;1.52;1.40;;;9.90;99.90;;;;;;5069349;28;20176;-74
2021/10/07 03:39:24;;;;;;;2.58;1.90;;;9.90;99.90;;;;;;5069429;28;20161;-75
2021/10/07 03:41:50;;;;;;;3.10;1.23;;;9.90;99.90;;;;;;5069084;28;20214;-74
2021/10/07 03:44:16;;;;;;;2.70;1.35;;;9.90;99.90;;;;;;5051137;28;20236;-74
2021/10/07 03:46:42;;;;;;;1.50;1.30;;;9.90;99.90;;;;;;5069170;28;20157;-75
2021/10/07 03:49:08;;;;;;;1.10;0.80;;;9.90;99.90;;;;;;5069260;28;20216;-75
2021/10/07 03:51:34;;;;;;;1.52;1.10;;;9.90;99.90;;;;;;5068914;28;20755;-75
2021/10/07 03:54:00;;;;;;;1.00;0.85;;;9.80;99.90;;;;;;5068963;28;20216;-75
2021/10/07 03:56:26;;;;;;;2.42;1.60;;;9.80;99.90;;;;;;5050858;28;20296;-76
2021/10/07 03:58:52;;;;;;;3.55;1.20;;;9.90;99.90;;;;;;5068950;28;20184;-75
2021/10/07 04:01:17;;;;;;;1.38;0.80;;;9.90;99.90;;;;;;5068731;28;20201;-75
2021/10/07 04:03:44;;;;;;;2.15;1.60;;;9.80;99.90;;;;;;5068803;28;20157;-75
2021/10/07 04:06:11;;;;;;;4.45;1.25;;;9.80;99.90;;;;;;5069448;28;20179;-75
2021/10/07 04:08:37;;;;;;;1.05;0.90;;;9.70;99.90;;;;;;5069103;28;20172;-75
2021/10/07 04:11:02;;;;;;;1.05;0.88;;;9.60;99.90;;;;;;5068630;28;20204;-75
2021/10/07 04:13:29;;;;;;;2.13;0.90;;;9.60;99.90;;;;;;5068137;28;20224;-75
2021/10/07 04:15:55;;;;;;;4.78;1.20;;;9.70;99.90;;;;;;5068960;28;20166;-75
2021/10/07 04:18:21;;;;;;;1.05;0.68;;;9.60;99.90;;;;;;5068826;28;20161;-75
2021/10/07 04:20:49;;;;;;;0.52;0.45;;;9.60;99.90;;;;;;5050495;28;20200;-75
2021/10/07 04:23:17;;;;;;;2.13;0.75;;;9.50;99.90;;;;;;5050633;28;20571;-75
2021/10/07 04:25:43;;;;;;;0.55;0.45;;;9.50;99.90;;;;;;5068780;28;20165;-75
2021/10/07 04:28:09;;;;;;;5.13;0.70;;;9.40;99.90;;;;;;5050751;28;20222;-75
2021/10/07 04:30:38;;;;;;;1.02;0.60;;;9.30;99.90;;;;;;5068478;28;20211;-75
2021/10/07 04:33:09;;;;;;;1.30;0.63;;;9.30;99.90;;;;;;5068621;28;20153;-74
2021/10/07 04:35:36;;;;;;;2.17;0.85;;;9.30;99.90;;;;;;5068485;28;20160;-74
2021/10/07 04:38:03;;;;;;;0.45;0.35;;;9.30;99.90;;;;;;5050527;28;20642;-75
2021/10/07 04:40:29;;;;;;;0.63;0.52;;;9.30;99.90;;;;;;5068247;28;20180;-76
2021/10/07 04:42:55;;;;;;;1.55;0.47;;;9.30;99.90;;;;;;5050262;28;20187;-76
2021/10/07 04:45:22;;;;;;;5.60;1.20;;;9.30;99.90;;;;;;5068452;28;20298;-75
2021/10/07 04:47:48;;;;;;;0.40;0.25;;;9.20;99.90;;;;;;5050026;28;20238;-75
2021/10/07 04:50:14;;;;;;;0.20;0.20;;;9.30;99.90;;;;;;5068169;28;20192;-75
2021/10/07 04:52:40;;;;;;;1.02;0.32;;;9.20;99.90;;;;;;5068012;28;20239;-76
2021/10/07 04:55:07;;;;;;;2.83;0.65;;;9.30;99.90;;;;;;5068303;28;20195;-76
2021/10/07 04:57:34;;;;;;;0.47;0.43;;;9.30;99.90;;;;;;5068303;28;20160;-76
2021/10/07 04:59:59;;;;;;;1.48;0.40;;;9.30;99.90;;;;;;5067986;28;20165;-75
2021/10/07 05:02:26;;;;;;;1.13;0.40;;;9.40;99.90;;;;;;5068124;28;20203;-75
2021/10/07 05:04:52;;;;;;;0.75;0.30;;;9.40;99.90;;;;;;5068161;28;20225;-75
2021/10/07 05:07:18;;;;;;;0.20;0.20;;;9.40;99.90;;;;;;5067873;28;20161;-75
2021/10/07 05:09:43;;;;;;;0.25;0.20;;;9.50;99.90;;;;;;5067847;28;20200;-75
2021/10/07 05:12:09;;;;;;;0.70;0.30;;;9.50;99.90;;;;;;5066984;28;20192;-75
2021/10/07 05:14:35;;;;;;;1.67;1.02;;;9.50;99.90;;;;;;5049733;28;20263;-75
2021/10/07 05:17:01;;;;;;;0.55;0.17;;;9.60;99.90;;;;;;5067687;28;20157;-75
2021/10/07 05:19:28;;;;;;;0.43;0.32;;;9.60;99.90;;;;;;5049771;28;20176;-75
2021/10/07 05:21:54;;;;;;;0.70;0.40;;;9.80;99.90;;;;;;5067784;28;20192;-75
2021/10/07 05:24:20;;;;;;;0.57;0.38;;;9.90;99.90;;;;;;5049634;28;20264;-75
2021/10/07 05:26:47;;;;;;;0.52;0.47;;;9.80;99.90;;;;;;5067686;28;20157;-76
2021/10/07 05:29:12;;;;;;;3.63;0.90;;;9.80;99.90;;;;;;5067470;28;20247;-76
2021/10/07 05:31:38;;;;;;;2.05;0.57;;;9.80;99.90;;;;;;5067494;28;20204;-75
2021/10/07 05:34:04;;;;;;;0.85;0.65;;;9.70;99.90;;;;;;5049734;28;20165;-75
2021/10/07 05:36:31;;;;;;;0.75;0.68;;;9.60;99.90;;;;;;5067484;28;20167;-75
2021/10/07 05:38:58;;;;;;;2.08;0.80;;;9.70;99.90;;;;;;5067726;28;20153;-75
2021/10/07 05:41:24;;;;;;;1.77;0.77;;;9.60;99.90;;;;;;5067404;28;20623;-75
2021/10/07 05:43:50;;;;;;;2.05;0.57;;;9.70;99.90;;;;;;5049122;28;20173;-75
2021/10/07 05:46:16;;;;;;;0.80;0.70;;;9.70;99.90;;;;;;5067412;28;20161;-75
2021/10/07 05:48:42;;;;;;;1.10;0.70;;;9.70;99.90;;;;;;5067328;28;20180;-75
2021/10/07 05:51:08;;;;;;;0.52;0.52;;;9.70;99.90;;;;;;5048940;28;20277;-75
2021/10/07 05:53:34;;;;;;;1.20;0.85;;;9.80;99.90;;;;;;5045816;28;20225;-75
2021/10/07 05:56:00;;;;;;;0.28;0.28;;;9.70;99.90;;;;;;5047498;28;20154;-75
2021/10/07 05:58:27;;;;;;;0.47;0.28;;;9.70;99.90;;;;;;5046024;28;20188;-75
2021/10/07 06:00:53;;;;;;;0.52;0.40;;;9.70;99.90;;;;;;5047094;28;20272;-75
2021/10/07 06:03:19;;;;;;;0.20;0.20;;;9.70;99.90;;;;;;5047223;28;20168;-74
2021/10/07 06:05:46;;;;;;;1.02;0.38;;;9.70;99.90;;;;;;5047261;28;20677;-75
2021/10/07 06:08:12;;;;;;;0.63;0.50;;;9.80;99.90;;;;;;5047211;28;20154;-75
2021/10/07 06:10:38;;;;;;;6.43;0.70;;;9.80;99.90;;;;;;5047412;28;20205;-75
2021/10/07 06:13:04;;;;;;;0.85;0.32;;;9.60;99.90;;;;;;5047022;28;20675;-74
2021/10/07 06:15:30;;;;;;;1.00;0.50;;;9.70;99.90;;;;;;5047155;28;20153;-75
2021/10/07 06:17:57;;;;;;;1.10;0.38;;;9.60;99.90;;;;;;5045780;28;20239;-75
2021/10/07 06:22:50;;;;;;;0.30;0.30;;;9.50;99.90;;;;;;5047216;28;20196;-75
2021/10/07 06:25:17;;;;;;;0.20;0.20;;;9.50;99.90;;;;;;5047258;28;20168;-75
2021/10/07 06:27:43;;;;;;;0.60;0.22;;;9.50;99.90;;;;;;5047494;28;20164;-75
2021/10/07 06:30:10;;;;;;;0.20;0.20;;;9.60;99.90;;;;;;5047219;28;20252;-75
2021/10/07 06:32:36;;;;;;;0.85;0.30;;;9.50;99.90;;;;;;5046989;28;20219;-75
2021/10/07 06:35:04;;;;;;;0.20;0.20;;;9.50;99.90;;;;;;5047179;28;20591;-75
2021/10/07 06:37:30;;;;;;;0.32;0.20;;;9.50;99.90;;;;;;5048916;28;20168;-75
2021/10/07 06:39:56;;;;;;;0.20;0.20;;;9.50;99.90;;;;;;5050525;28;20165;-75
2021/10/07 06:42:22;;;;;;;0.90;0.30;;;9.60;99.90;;;;;;5050480;28;20193;-75
2021/10/07 06:44:47;;;;;;;0.38;0.20;;;9.60;99.90;;;;;;5050687;28;20162;-75
2021/10/07 06:47:13;;;;;;;0.20;0.20;;;9.60;99.90;;;;;;5050734;28;20157;-75
2021/10/07 06:49:40;;;;;;;0.22;0.22;;;9.60;99.90;;;;;;5050618;28;20621;-75
2021/10/07 06:52:06;;;;;;;0.38;0.28;;;9.60;99.90;;;;;;5053441;28;20216;-75
2021/10/07 06:54:32;;;;;;;0.25;0.25;;;9.60;99.90;;;;;;5070645;28;20598;-75
2021/10/07 06:56:59;;;;;;;0.88;0.35;;;9.50;99.90;;;;;;5070745;28;20149;-75
2021/10/07 06:59:25;;;;;;;0.25;0.20;;;9.60;99.90;;;;;;5052071;28;20206;-76
2021/10/07 07:01:51;;;;;;;0.40;0.20;;;9.60;99.90;;;;;;5070397;28;20528;-76
2021/10/07 07:04:17;;;;;;;0.10;0.10;;;9.80;99.90;;;;;;5070420;28;20161;-76
2021/10/07 07:06:45;;;;;;;0.20;0.17;;;9.70;99.90;;;;;;5070437;28;20184;-75
2021/10/07 07:09:12;;;;;;;0.20;0.10;;;9.70;99.90;;;;;;5070174;28;20186;-76
2021/10/07 07:11:38;;;;;;;0.10;0.10;;;9.60;99.90;;;;;;5064186;28;20272;-75
2021/10/07 07:14:05;;;;;;;0.10;0.10;;;9.60;99.90;;;;;;5069269;28;20176;-75
2021/10/07 07:16:35;;;;;;;0.30;0.20;;;9.50;99.90;;;;;;5069734;28;20194;-76
2021/10/07 07:19:01;;;;;;;0.15;0.15;;;9.60;99.90;;;;;;5070148;28;20161;-75
2021/10/07 07:21:31;;;;;;;0.35;0.20;;;9.50;99.90;;;;;;5068167;28;20231;-75
2021/10/07 07:23:58;;;;;;;0.22;0.17;;;9.50;99.90;;;;;;5069503;28;20183;-76
2021/10/07 07:26:26;;;;;;;0.20;0.20;;;9.60;99.90;;;;;;5068381;28;20627;-76
2021/10/07 07:28:53;;;;;;;0.10;0.10;;;9.70;99.90;;;;;;5069669;28;20195;-76
2021/10/07 07:31:20;;;;;;;0.10;0.10;;;9.60;99.90;;;;;;5069346;28;20184;-77
2021/10/07 07:33:47;;;;;;;0.10;0.10;;;9.50;99.90;;;;;;5069316;28;20256;-77
2021/10/07 07:36:14;;;;;;;0.20;0.10;;;9.50;99.90;;;;;;5051540;28;20207;-77
2021/10/07 07:38:42;;;;;;;0.10;0.10;;;9.50;99.90;;;;;;5068789;28;20246;-77
2021/10/07 07:41:10;;;;;;;0.13;0.13;;;9.60;99.90;;;;;;5069012;28;20188;-76
2021/10/07 07:43:36;;;;;;;0.10;0.10;;;9.60;99.90;;;;;;5068846;28;20188;-76
2021/10/07 07:46:02;;;;;;;0.20;0.20;;;9.60;99.90;;;;;;5069347;28;20638;-76
2021/10/07 07:48:28;;;;;;;0.50;0.13;;;9.50;99.90;;;;;;5069325;28;20161;-76
2021/10/07 07:50:54;;;;;;;0.10;0.10;;;9.60;99.90;;;;;;5069292;28;20252;-76
2021/10/07 07:53:20;;;;;;;0.10;0.10;;;9.70;99.90;;;;;;5068649;28;20246;-76
2021/10/07 07:55:46;;;;;;;0.17;0.17;;;9.60;99.90;;;;;;5069265;28;20184;-76
2021/10/07 07:58:13;;;;;;;0.10;0.10;;;9.60;99.90;;;;;;5069121;28;20184;-76
2021/10/07 08:00:39;;;;;;;0.10;0.10;;;9.50;99.90;;;;;;5067443;28;20263;-76
2021/10/07 08:03:06;;;;;;;0.10;0.10;;;9.60;99.90;;;;;;5068823;28;20181;-76
2021/10/07 08:05:32;;;;;;;0.40;0.17;;;9.50;99.90;;;;;;5064154;28;20200;-77
2021/10/07 08:07:58;;;;;;;0.28;0.28;;;9.50;99.90;;;;;;5068858;28;20173;-75
2021/10/07 08:10:24;;;;;;;0.22;0.10;;;9.60;99.90;;;;;;5068849;28;20203;-77
2021/10/07 08:12:51;;;;;;;0.32;0.20;;;9.40;99.90;;;;;;5068867;28;20629;-75
2021/10/07 08:15:18;;;;;;;0.20;0.20;;;9.40;99.90;;;;;;5068069;28;20157;-74
2021/10/07 08:17:44;;;;;;;0.10;0.10;;;9.50;99.90;;;;;;5068722;28;20519;-75
2021/10/07 08:20:13;;;;;;;0.10;0.10;;;9.50;99.90;;;;;;5068720;28;20610;-74
2021/10/07 08:22:39;;;;;;;0.10;0.10;;;9.40;99.90;;;;;;5068696;28;20153;-75
2021/10/07 08:25:07;;;;;;;0.10;0.10;;;9.40;99.90;;;;;;5068126;28;20184;-75
2021/10/07 08:27:33;;;;;;;0.10;0.10;;;9.60;99.90;;;;;;5068858;28;20476;-74
2021/10/07 08:29:59;;;;;;;0.20;0.10;;;9.60;99.90;;;;;;5068175;28;20252;-75
2021/10/07 08:32:25;;;;;;;0.30;0.20;;;9.50;99.90;;;;;;5050626;28;20186;-74
2021/10/07 08:34:51;;;;;;;0.00;0.00;;;9.60;99.90;;;;;;5068321;28;20156;-75
2021/10/07 08:37:18;;;;;;;0.10;0.10;;;9.50;99.90;;;;;;5050467;28;20189;-75
2021/10/07 08:39:44;;;;;;;0.17;0.10;;;9.60;99.90;;;;;;5050532;28;20161;-75
2021/10/07 08:42:10;;;;;;;0.20;0.20;;;9.70;99.90;;;;;;5068508;28;20160;-77
2021/10/07 08:44:36;;;;;;;0.20;0.20;;;9.60;99.90;;;;;;5067935;28;20157;-73
2021/10/07 08:47:02;;;;;;;0.10;0.10;;;9.80;99.90;;;;;;5068393;28;20199;-74
2021/10/07 08:49:33;;;;;;;0.57;0.25;;;9.60;99.90;;;;;;5074962;28;20172;-77
2021/10/07 08:51:58;;;;;;;0.00;0.00;;;9.80;99.90;;;;;;5066866;28;20229;-77
2021/10/07 08:54:26;;;;;;;0.10;0.10;;;9.80;99.90;;;;;;5067877;28;20156;-75
2021/10/07 08:56:52;;;;;;;0.32;0.10;;;9.80;99.90;;;;;;5050509;28;20218;-76
2021/10/07 08:59:19;;;;;;;0.13;0.13;;;9.90;99.90;;;;;;5067827;28;20188;-74
2021/10/07 09:01:47;;;;;;;0.30;0.20;;;9.80;99.90;;;;;;5067817;28;20168;-75
2021/10/07 09:04:34;;;;;;;0.10;0.10;;;9.80;99.90;;;;;;5067756;28;20220;-75
2021/10/07 09:07:04;;;;;;;0.20;0.17;;;9.70;99.90;;;;;;5049977;28;20220;-75
2021/10/07 09:09:32;;;;;;;0.10;0.10;;;9.80;99.90;;;;;;5066180;28;20204;-76
2021/10/07 09:12:07;;;;;;;1.50;0.20;;;9.90;99.90;;;;;;5072030;28;20193;-74
2021/10/07 09:14:36;;;;;;;0.20;0.15;;;9.90;99.90;;;;;;5065142;28;20223;-75
2021/10/07 09:17:04;;;;;;;0.10;0.10;;;9.90;99.90;;;;;;5049912;28;20175;-75
2021/10/07 09:19:32;;;;;;;0.20;0.20;;;10.10;99.90;;;;;;5048016;28;20162;-74
2021/10/07 09:22:11;;;;;;;0.10;0.10;;;10.10;99.90;;;;;;5047631;28;20221;-74
2021/10/07 09:24:57;;;;;;;0.10;0.10;;;10.20;99.90;;;;;;5057910;28;20164;-74
2021/10/07 09:27:27;;;;;;;0.38;0.22;;;10.30;99.90;;;;;;5067959;28;20161;-72
2021/10/07 09:29:56;;;;;;;0.35;0.10;;;10.20;99.90;;;;;;5067355;28;20204;-73
2021/10/07 09:32:30;;;;;;;0.20;0.20;;;10.30;99.90;;;;;;5067347;28;20244;-73
2021/10/07 09:35:02;;;;;;;0.98;0.25;;;10.30;99.90;;;;;;5067046;28;20153;-74
2021/10/07 09:37:33;;;;;;;0.10;0.10;;;10.30;99.90;;;;;;5067597;28;20164;-77
2021/10/07 09:40:09;;;;;;;0.20;0.10;;;10.30;99.90;;;;;;5067975;28;20161;-76
2021/10/07 09:42:44;;;;;;;0.32;0.20;;;10.40;99.90;;;;;;5065600;28;20214;-75
2021/10/07 09:45:11;;;;;;;0.10;0.10;;;10.40;99.90;;;;;;5041780;28;20188;-75
2021/10/07 09:47:42;;;;;;;0.10;0.10;;;10.20;99.90;;;;;;5067324;28;20183;-75
2021/10/07 09:50:17;;;;;;;0.20;0.20;;;10.30;99.90;;;;;;5067605;28;20198;-74
2021/10/07 09:52:45;;;;;;;0.20;0.20;;;10.30;99.90;;;;;;5049603;28;20222;-75
2021/10/07 09:55:14;;;;;;;0.10;0.10;;;10.30;99.90;;;;;;5067244;28;20176;-75
2021/10/07 09:57:55;;;;;;;0.35;0.35;;;10.30;99.90;;;;;;5067261;28;20172;-75
2021/10/07 10:00:22;;;;;;;0.10;0.10;;;10.40;99.90;;;;;;5067152;28;20167;-75
2021/10/07 10:02:49;;;;;;;0.10;0.10;;;10.50;99.90;;;;;;5067154;28;20192;-75
2021/10/07 10:05:15;;;;;;;1.30;0.20;;;10.40;99.90;;;;;;5067069;28;20157;-74
2021/10/07 10:07:43;;;;;;;0.17;0.17;;;10.40;99.90;;;;;;5067363;28;20220;-74
2021/10/07 10:10:09;;;;;;;0.52;0.20;;;10.30;99.90;;;;;;5067273;28;20184;-74
2021/10/07 10:12:36;;;;;;;0.30;0.20;;;10.30;99.90;;;;;;5069321;28;20200;-73
2021/10/07 10:15:05;;;;;;;0.40;0.40;;;10.30;99.90;;;;;;5070864;28;20164;-73
2021/10/07 10:17:34;;;;;;;0.40;0.20;;;10.20;99.90;;;;;;5052943;28;20188;-73
2021/10/07 10:20:03;;;;;;;0.82;0.20;;;10.40;99.90;;;;;;5070943;28;20163;-73
2021/10/07 10:22:30;;;;;;;0.10;0.10;;;10.50;99.90;;;;;;5070150;28;20165;-74
2021/10/07 10:24:59;;;;;;;0.43;0.20;;;10.50;99.90;;;;;;5070458;28;20247;-73
2021/10/07 10:27:25;;;;;;;0.30;0.20;;;10.60;99.90;;;;;;5070941;28;20153;-73
2021/10/07 10:30:27;;;;;;;0.20;0.10;;;10.60;99.90;;;;;;5070728;28;20183;-73
2021/10/07 10:32:56;;;;;;;0.50;0.20;;;10.60;99.90;;;;;;5070660;28;20190;-73
2021/10/07 10:35:34;;;;;;;0.20;0.20;;;10.70;99.90;;;;;;5052456;28;20225;-73
2021/10/07 10:38:01;;;;;;;0.63;0.20;;;10.70;99.90;;;;;;5052485;28;20267;-73
2021/10/07 10:40:27;;;;;;;0.10;0.10;;;10.90;99.90;;;;;;5070461;28;20180;-73
2021/10/07 10:43:17;;;;;;;0.65;0.30;;;10.90;99.90;;;;;;5052768;28;20224;-73
2021/10/07 10:46:08;;;;;;;1.63;0.10;;;10.90;99.90;;;;;;5070309;28;20180;-73
2021/10/07 10:48:48;;;;;;;2.13;0.20;;;10.80;99.90;;;;;;5070324;28;20263;-73
2021/10/07 10:51:16;;;;;;;0.17;0.17;;;10.90;99.90;;;;;;5070489;28;20180;-73
2021/10/07 10:53:49;;;;;;;0.70;0.20;;;10.80;99.90;;;;;;5070001;28;20263;-73
2021/10/07 10:56:17;;;;;;;0.32;0.32;;;10.90;99.90;;;;;;5070293;28;20236;-73
2021/10/07 10:58:53;;;;;;;0.20;0.20;;;10.90;99.90;;;;;;5070313;28;20160;-73
2021/10/07 11:01:19;;;;;;;1.10;0.10;;;10.90;99.90;;;;;;5070210;28;20160;-73
2021/10/07 11:03:46;;;;;;;0.60;0.10;;;10.80;99.90;;;;;;5069474;28;20429;-73
2021/10/07 11:06:12;;;;;;;0.10;0.10;;;10.80;99.90;;;;;;5070115;28;20191;-73
2021/10/07 11:08:41;;;;;;;0.20;0.20;;;10.70;99.90;;;;;;5069536;28;20184;-75
2021/10/07 11:11:09;;;;;;;0.10;0.10;;;10.80;99.90;;;;;;5070001;28;20204;-74
2021/10/07 11:13:45;;;;;;;0.25;0.17;;;10.80;99.90;;;;;;5051405;28;20203;-74
2021/10/07 11:16:17;;;;;;;0.43;0.20;;;10.80;99.90;;;;;;5069915;28;20204;-74
2021/10/07 11:18:44;;;;;;;0.20;0.20;;;10.90;99.90;;;;;;5069954;28;20240;-74
2021/10/07 11:21:16;;;;;;;1.58;0.40;;;10.90;99.90;;;;;;5070056;28;20188;-74
2021/10/07 11:23:47;;;;;;;1.05;0.10;;;11.00;99.90;;;;;;5068712;28;20185;-73
2021/10/07 11:26:13;;;;;;;0.35;0.20;;;11.10;99.90;;;;;;5069717;28;20165;-74
2021/10/07 11:28:42;;;;;;;0.13;0.13;;;11.00;99.90;;;;;;5051838;28;20212;-74
2021/10/07 11:31:12;;;;;;;0.45;0.35;;;11.10;99.90;;;;;;5069715;28;20228;-74
2021/10/07 11:33:40;;;;;;;0.20;0.20;;;11.00;99.90;;;;;;5069404;28;20160;-74
2021/10/07 11:36:19;;;;;;;0.50;0.30;;;11.00;99.90;;;;;;5051950;28;20290;-74
2021/10/07 11:38:47;;;;;;;0.25;0.20;;;11.00;99.90;;;;;;5069891;28;20157;-74
2021/10/07 11:41:15;;;;;;;0.50;0.30;;;11.10;99.90;;;;;;5069635;28;20168;-74
2021/10/07 11:43:43;;;;;;;1.92;0.25;;;11.20;99.90;;;;;;5069684;28;20157;-74
2021/10/07 11:46:12;;;;;;;0.40;0.20;;;11.30;99.90;;;;;;5051521;28;20188;-74
2021/10/07 11:48:54;;;;;;;0.30;0.22;;;11.30;99.90;;;;;;5069180;28;20176;-74
2021/10/07 11:51:29;;;;;;;0.55;0.20;;;11.20;99.90;;;;;;5064389;28;20192;-74
2021/10/07 11:54:02;;;;;;;0.60;0.20;;;11.20;99.90;;;;;;5068864;28;20223;-74
2021/10/07 11:56:30;;;;;;;0.73;0.20;;;11.30;99.90;;;;;;5069045;28;20161;-75
2021/10/07 11:59:00;;;;;;;0.17;0.17;;;11.20;99.90;;;;;;5057089;28;20176;-75
2021/10/07 12:01:30;;;;;;;0.47;0.22;;;11.30;99.90;;;;;;5031088;28;20276;-75
2021/10/07 12:03:59;;;;;;;1.67;0.30;;;11.30;99.90;;;;;;5048568;28;20165;-75
2021/10/07 12:06:27;;;;;;;0.20;0.20;;;11.40;99.90;;;;;;5049194;28;20165;-75
2021/10/07 12:08:53;;;;;;;0.20;0.20;;;11.30;99.90;;;;;;5049411;28;20166;-75
2021/10/07 12:11:22;;;;;;;0.65;0.30;;;11.30;99.90;;;;;;5049000;28;20205;-75
2021/10/07 12:13:51;;;;;;;0.28;0.28;;;11.40;99.90;;;;;;5048626;28;20260;-75
2021/10/07 12:16:27;;;;;;;1.08;0.40;;;11.40;99.90;;;;;;5031121;28;20181;-75
2021/10/07 12:18:55;;;;;;;0.20;0.20;;;11.40;99.90;;;;;;5048837;28;20619;-73
2021/10/07 12:21:24;;;;;;;0.10;0.10;;;11.40;99.90;;;;;;5048981;28;20188;-74
2021/10/07 12:24:07;;;;;;;1.65;0.50;;;11.40;99.90;;;;;;5030490;28;20169;-74
2021/10/07 12:26:42;;;;;;;0.40;0.30;;;11.50;99.90;;;;;;5048762;28;20187;-75
2021/10/07 12:29:12;;;;;;;0.30;0.30;;;11.50;99.90;;;;;;5048737;28;20153;-75
2021/10/07 12:31:39;;;;;;;0.40;0.40;;;11.40;99.90;;;;;;5048564;28;20201;-74
2021/10/07 12:34:08;;;;;;;0.22;0.22;;;11.50;99.90;;;;;;5047432;28;20154;-74
2021/10/07 12:36:44;;;;;;;0.75;0.38;;;11.50;99.90;;;;;;5048620;28;20277;-74
2021/10/07 12:39:43;;;;;;;1.45;0.35;;;11.50;99.90;;;;;;5048538;28;20157;-74
2021/10/07 12:42:17;;;;;;;2.15;0.55;;;11.50;99.90;;;;;;5033346;28;20213;-73
2021/10/07 12:44:55;;;;;;;0.55;0.32;;;11.60;99.90;;;;;;5048132;28;20207;-74
2021/10/07 12:47:28;;;;;;;0.50;0.30;;;11.60;99.90;;;;;;5056599;28;20638;-74
2021/10/07 12:50:17;;;;;;;1.95;0.40;;;11.60;99.90;;;;;;5068338;28;20260;-74
2021/10/07 12:52:58;;;;;;;0.30;0.30;;;11.70;99.90;;;;;;5057098;28;20248;-73
2021/10/07 12:55:27;;;;;;;0.45;0.30;;;11.60;99.90;;;;;;5068306;28;20220;-73
2021/10/07 12:57:56;;;;;;;1.45;0.75;;;11.50;99.90;;;;;;5068193;28;20167;-74
2021/10/07 13:00:32;;;;;;;2.63;0.75;;;11.50;99.90;;;;;;5067990;28;20173;-74
2021/10/07 13:03:02;;;;;;;0.35;0.35;;;11.40;99.90;;;;;;5049471;28;20199;-74
2021/10/07 13:05:35;;;;;;;0.30;0.30;;;11.50;99.90;;;;;;5067565;28;20236;-74